createdAt,value
2022-12-06T00:01:14.896Z,100120.97
2022-12-06T00:04:04.831Z,100124.06
2022-12-06T00:06:52.781Z,100126.06
2022-12-06T00:09:40.767Z,100127.06
2022-12-06T00:12:29.422Z,100125.47
2022-12-06T00:15:17.487Z,100125.41
2022-12-06T00:18:06.890Z,100131.19
2022-12-06T00:20:54.872Z,100123.47
2022-12-06T00:23:45.428Z,100123.94
2022-12-06T00:26:35.691Z,100122.22
2022-12-06T00:29:24.765Z,100112.06
2022-12-06T00:32:19.033Z,100110.78
2022-12-06T00:35:09.144Z,100119.06
2022-12-06T00:37:57.704Z,100109.09
2022-12-06T00:40:45.667Z,100110.50
2022-12-06T00:43:34.586Z,100112.28
2022-12-06T00:46:24.378Z,100109.56
2022-12-06T00:49:12.436Z,100113.66
2022-12-06T00:52:01.874Z,100114.03
2022-12-06T00:54:49.826Z,100108.78
2022-12-06T00:57:37.849Z,100105.25
2022-12-06T01:00:25.916Z,100101.16
2022-12-06T01:03:13.917Z,100095.91
2022-12-06T01:06:04.923Z,100091.53
2022-12-06T01:08:55.784Z,100097.84
2022-12-06T01:11:43.737Z,100091.63
2022-12-06T01:14:31.715Z,100106.78
2022-12-06T01:17:19.671Z,100107.34
2022-12-06T01:20:08.808Z,100103.69
2022-12-06T01:22:56.758Z,100109.88
2022-12-06T01:25:52.388Z,100093.59
2022-12-06T01:28:40.343Z,100107.00
2022-12-06T01:31:35.408Z,100114.19
2022-12-06T01:34:25.523Z,100111.22
2022-12-06T01:37:13.521Z,100108.25
2022-12-06T01:40:01.731Z,100097.44
2022-12-06T01:42:51.114Z,100115.97
2022-12-06T01:45:46.010Z,100112.41
2022-12-06T01:48:35.974Z,100104.03
2022-12-06T01:51:24.512Z,100112.09
2022-12-06T01:54:16.022Z,100116.28
2022-12-06T01:57:08.162Z,100102.91
2022-12-06T01:59:57.735Z,100104.78
2022-12-06T02:02:46.228Z,100106.03
2022-12-06T02:05:40.323Z,100105.66
2022-12-06T02:08:28.978Z,100084.25
2022-12-06T02:11:16.901Z,100109.63
2022-12-06T02:14:08.385Z,100105.31
2022-12-06T02:17:11.235Z,100091.94
2022-12-06T02:20:04.956Z,100105.06
2022-12-06T02:23:24.337Z,100093.97
2022-12-06T02:26:21.138Z,100091.75
2022-12-06T02:29:45.985Z,100089.34
2022-12-06T02:32:40.831Z,100081.19
2022-12-06T02:35:34.212Z,100082.81
2022-12-06T02:38:30.064Z,100079.03
2022-12-06T02:41:23.702Z,100081.03
2022-12-06T02:44:20.252Z,100072.19
2022-12-06T02:47:12.094Z,100080.19
2022-12-06T02:50:04.727Z,100075.69
2022-12-06T02:52:55.463Z,100071.16
2022-12-06T02:55:44.344Z,100071.31
2022-12-06T02:58:35.422Z,100063.84
2022-12-06T03:01:27.607Z,100071.06
2022-12-06T03:04:46.432Z,100064.78
2022-12-06T03:07:42.749Z,100063.19
2022-12-06T03:10:41.643Z,100060.81
2022-12-06T03:13:35.829Z,100062.88
2022-12-06T03:16:29.001Z,100064.00
2022-12-06T03:19:20.560Z,100060.81
2022-12-06T03:22:12.726Z,100053.50
2022-12-06T03:25:03.828Z,100059.88
2022-12-06T03:27:54.486Z,100060.94
2022-12-06T03:30:46.644Z,100062.97
2022-12-06T03:33:38.257Z,100056.28
2022-12-06T03:36:28.148Z,100049.13
2022-12-06T03:39:20.741Z,100056.03
2022-12-06T03:42:10.748Z,100041.97
2022-12-06T03:44:59.460Z,100026.50
2022-12-06T03:47:54.084Z,100053.69
2022-12-06T03:50:46.062Z,100051.63
2022-12-06T03:53:34.120Z,100050.59
2022-12-06T03:56:23.532Z,100052.41
2022-12-06T03:59:12.874Z,100050.97
2022-12-06T04:02:00.851Z,100048.81
2022-12-06T04:04:49.231Z,100048.34
2022-12-06T04:07:37.618Z,100045.38
2022-12-06T04:10:25.560Z,100036.28
2022-12-06T04:13:19.330Z,100049.38
2022-12-06T04:16:30.130Z,100046.06
2022-12-06T04:19:17.162Z,100030.59
2022-12-06T04:22:22.928Z,100034.91
2022-12-06T04:25:10.853Z,100027.53
2022-12-06T04:28:16.265Z,100028.34
2022-12-06T04:31:22.625Z,100027.19
2022-12-06T04:34:29.982Z,100026.59
2022-12-06T04:37:35.508Z,100015.13
2022-12-06T04:40:23.380Z,100016.84
2022-12-06T04:43:29.067Z,100013.56
2022-12-06T04:46:17.396Z,100015.41
2022-12-06T04:49:05.408Z,100006.47
2022-12-06T04:51:55.145Z,100005.22
2022-12-06T04:54:43.388Z,100009.38
2022-12-06T04:57:31.338Z,100007.47
2022-12-06T05:00:19.797Z,99997.03
2022-12-06T05:03:07.700Z,99997.22
2022-12-06T05:05:55.750Z,99993.84
2022-12-06T05:08:44.986Z,99997.94
2022-12-06T05:11:32.998Z,100000.91
2022-12-06T05:14:21.079Z,100005.41
2022-12-06T05:17:09.078Z,100007.56
2022-12-06T05:19:57.037Z,100001.25
2022-12-06T05:22:45.057Z,100011.03
2022-12-06T05:25:34.506Z,100004.75
2022-12-06T05:28:22.377Z,100010.66
2022-12-06T05:31:10.402Z,100011.13
2022-12-06T05:33:58.308Z,100013.41
2022-12-06T05:36:46.273Z,100013.63
2022-12-06T05:39:34.159Z,100007.03
2022-12-06T05:42:23.361Z,100008.63
2022-12-06T05:45:12.169Z,100016.13
2022-12-06T05:48:00.110Z,100010.44
2022-12-06T05:50:48.423Z,100012.84
2022-12-06T05:53:36.440Z,100015.09
2022-12-06T05:56:24.314Z,100024.28
2022-12-06T05:59:13.541Z,100024.66
2022-12-06T06:02:01.528Z,100019.31
2022-12-06T06:04:49.554Z,100022.72
2022-12-06T06:07:37.520Z,100022.91
2022-12-06T06:10:25.700Z,100028.03
2022-12-06T06:13:13.785Z,100006.09
2022-12-06T06:16:03.038Z,100029.84
2022-12-06T06:18:50.931Z,100031.91
2022-12-06T06:21:38.812Z,100034.72
2022-12-06T06:24:26.732Z,100035.41
2022-12-06T06:27:14.667Z,100035.63
2022-12-06T06:30:02.899Z,100034.81
2022-12-06T06:32:52.414Z,100028.56
2022-12-06T06:35:40.730Z,100030.97
2022-12-06T06:38:28.726Z,100032.91
2022-12-06T06:41:16.981Z,100033.34
2022-12-06T06:44:05.013Z,100022.88
2022-12-06T06:46:52.940Z,100027.97
2022-12-06T06:49:42.219Z,100023.81
2022-12-06T06:52:30.134Z,100041.41
2022-12-06T06:55:20.353Z,100037.91
2022-12-06T06:58:08.356Z,100039.81
2022-12-06T07:00:57.836Z,100038.78
2022-12-06T07:03:42.803Z,100035.69
2022-12-06T07:06:12.257Z,100027.88
2022-12-06T07:08:41.423Z,100029.31
2022-12-06T07:11:09.899Z,99958.00
2022-12-06T07:13:38.361Z,100034.50
2022-12-06T07:16:08.621Z,100040.63
2022-12-06T07:18:36.262Z,100032.78
2022-12-06T07:21:06.135Z,100031.31
2022-12-06T07:23:36.777Z,100028.56
2022-12-06T07:26:07.122Z,100027.69
2022-12-06T07:28:36.686Z,100016.75
2022-12-06T07:31:11.709Z,100032.22
2022-12-06T07:33:39.747Z,100031.09
2022-12-06T07:36:13.394Z,100033.69
2022-12-06T07:38:43.748Z,100031.63
2022-12-06T07:41:31.639Z,100037.69
2022-12-06T07:44:17.571Z,100028.44
2022-12-06T07:46:45.758Z,99992.81
2022-12-06T07:49:13.476Z,100028.75
2022-12-06T07:51:41.089Z,100044.47
2022-12-06T07:54:10.263Z,100046.94
2022-12-06T07:56:38.044Z,100040.69
2022-12-06T07:59:06.012Z,100036.97
2022-12-06T08:01:33.752Z,100037.94
2022-12-06T08:04:02.122Z,100041.03
2022-12-06T08:06:31.686Z,100041.34
2022-12-06T08:08:59.419Z,100045.47
2022-12-06T08:11:29.058Z,100045.66
2022-12-06T08:13:56.733Z,100048.38
2022-12-06T08:16:24.574Z,100042.47
2022-12-06T08:18:52.558Z,100038.09
2022-12-06T08:21:20.342Z,100039.22
2022-12-06T08:23:48.115Z,100040.34
2022-12-06T08:26:18.643Z,100042.16
2022-12-06T08:28:47.623Z,100043.16
2022-12-06T08:31:17.674Z,100054.19
2022-12-06T08:33:45.850Z,100049.66
2022-12-06T08:36:15.438Z,100047.50
2022-12-06T08:38:43.435Z,100052.38
2022-12-06T08:41:32.130Z,100047.50
2022-12-06T08:44:02.427Z,100048.91
2022-12-06T08:46:31.403Z,100052.56
2022-12-06T08:48:59.164Z,100045.06
2022-12-06T08:51:27.009Z,100046.63
2022-12-06T08:53:55.986Z,100053.34
2022-12-06T08:56:24.335Z,100035.41
2022-12-06T08:58:53.883Z,100043.25
2022-12-06T09:01:25.434Z,100048.28
2022-12-06T09:03:53.337Z,100045.09
2022-12-06T09:06:22.133Z,100048.06
2022-12-06T09:08:50.118Z,100047.38
2022-12-06T09:11:18.700Z,100048.09
2022-12-06T09:13:46.982Z,100050.97
2022-12-06T09:16:16.713Z,100052.97
2022-12-06T09:18:46.971Z,100045.34
2022-12-06T09:21:17.198Z,100046.59
2022-12-06T09:23:45.215Z,100048.28
2022-12-06T09:26:13.049Z,100010.31
2022-12-06T09:28:42.974Z,100044.34
2022-12-06T09:31:11.389Z,100044.13
2022-12-06T09:33:39.555Z,100041.16
2022-12-06T09:36:14.756Z,100040.91
2022-12-06T09:38:44.487Z,100043.81
2022-12-06T09:41:26.377Z,100045.31
2022-12-06T09:44:07.682Z,100046.44
2022-12-06T09:46:48.413Z,100048.03
2022-12-06T09:49:33.020Z,100052.69
2022-12-06T09:52:15.524Z,100053.06
2022-12-06T09:55:00.324Z,100058.19
2022-12-06T09:57:37.092Z,100054.78
2022-12-06T10:00:11.709Z,100055.56
2022-12-06T10:03:02.294Z,100057.75
2022-12-06T10:05:38.573Z,100054.63
2022-12-06T10:08:23.161Z,100053.75
2022-12-06T10:10:57.985Z,100054.91
2022-12-06T10:13:41.114Z,100050.47
2022-12-06T10:16:16.578Z,100047.31
2022-12-06T10:19:08.334Z,100056.41
2022-12-06T10:21:46.647Z,100055.22
2022-12-06T10:24:29.142Z,100033.84
2022-12-06T10:27:04.090Z,100056.16
2022-12-06T10:29:43.292Z,100042.53
2022-12-06T10:32:18.674Z,100047.38
2022-12-06T10:34:54.535Z,100047.66
2022-12-06T10:37:35.555Z,100049.69
2022-12-06T10:40:14.596Z,100051.41
2022-12-06T10:42:46.045Z,100052.31
2022-12-06T10:45:41.812Z,100051.09
2022-12-06T10:48:17.028Z,100040.41
2022-12-06T10:50:47.847Z,100046.13
2022-12-06T10:53:17.706Z,100060.44
2022-12-06T10:55:50.660Z,100050.31
2022-12-06T10:58:27.877Z,100049.84
2022-12-06T11:00:59.850Z,100050.19
2022-12-06T11:03:33.037Z,100005.28
2022-12-06T11:06:08.092Z,100040.41
2022-12-06T11:08:39.772Z,100012.34
2022-12-06T11:11:16.082Z,100043.63
2022-12-06T11:13:47.703Z,100049.19
2022-12-06T11:16:19.761Z,100046.13
2022-12-06T11:18:49.001Z,100047.56
2022-12-06T11:21:26.803Z,100046.69
2022-12-06T11:24:00.603Z,100037.69
2022-12-06T11:26:36.064Z,100040.41
2022-12-06T11:29:06.808Z,100051.69
2022-12-06T11:31:38.951Z,100039.28
2022-12-06T11:34:15.013Z,100047.94
2022-12-06T11:36:43.068Z,100044.44
2022-12-06T11:39:13.580Z,100034.88
2022-12-06T11:41:46.176Z,100043.63
2022-12-06T11:44:18.429Z,99973.25
2022-12-06T11:46:46.339Z,100037.47
2022-12-06T11:49:32.685Z,100039.66
2022-12-06T11:52:05.812Z,100030.00
2022-12-06T11:54:39.991Z,100026.09
2022-12-06T11:57:22.683Z,100007.59
2022-12-06T12:00:16.575Z,100022.47
2022-12-06T12:02:45.881Z,100023.63
2022-12-06T12:05:21.090Z,100021.03
2022-12-06T12:07:51.772Z,100022.38
2022-12-06T12:10:29.287Z,100016.56
2022-12-06T12:13:12.473Z,100018.16
2022-12-06T12:15:48.610Z,100021.69
2022-12-06T12:18:23.925Z,100016.00
2022-12-06T12:20:51.792Z,100021.81
2022-12-06T12:23:22.668Z,100019.09
2022-12-06T12:26:01.387Z,100013.75
2022-12-06T12:28:32.792Z,100013.03
2022-12-06T12:31:01.583Z,100011.47
2022-12-06T12:33:30.214Z,100013.47
2022-12-06T12:36:15.523Z,100012.78
2022-12-06T12:38:45.651Z,100015.06
2022-12-06T12:41:31.712Z,100011.72
2022-12-06T12:46:56.121Z,100022.47
2022-12-06T12:49:28.082Z,100016.41
2022-12-06T12:51:56.192Z,100022.00
2022-12-06T12:54:29.041Z,100020.06
2022-12-06T12:56:57.955Z,100022.91
2022-12-06T12:59:29.805Z,100019.97
2022-12-06T13:02:02.855Z,100024.84
2022-12-06T13:04:37.697Z,100020.03
2022-12-06T13:07:08.429Z,100020.63
2022-12-06T13:09:46.560Z,99983.16
2022-12-06T13:12:20.219Z,100011.88
2022-12-06T13:14:54.988Z,100008.69
2022-12-06T13:17:27.394Z,100011.31
2022-12-06T13:19:55.460Z,100015.28
2022-12-06T13:22:27.766Z,100007.25
2022-12-06T13:25:01.543Z,99998.47
2022-12-06T13:27:33.739Z,100010.88
2022-12-06T13:30:07.518Z,99992.44
2022-12-06T13:32:41.136Z,100005.19
2022-12-06T13:35:21.013Z,100004.63
2022-12-06T13:37:54.147Z,100005.19
2022-12-06T13:40:46.283Z,100001.88
2022-12-06T13:43:56.500Z,99996.28
2022-12-06T13:46:29.334Z,100005.03
2022-12-06T13:48:58.519Z,100005.75
2022-12-06T13:51:46.272Z,100002.44
2022-12-06T13:54:30.984Z,100013.03
2022-12-06T13:57:00.166Z,100004.53
2022-12-06T13:59:40.209Z,100008.16
2022-12-06T14:02:50.687Z,100007.78
2022-12-06T14:08:33.935Z,100006.22
2022-12-06T14:11:25.054Z,100007.78
2022-12-06T14:14:02.491Z,100012.81
2022-12-06T14:16:35.129Z,100009.66
2022-12-06T14:19:12.742Z,100020.31
2022-12-06T14:21:44.201Z,100023.03
2022-12-06T14:24:26.916Z,100023.75
2022-12-06T14:26:54.503Z,100020.66
2022-12-06T14:29:23.614Z,100021.09
2022-12-06T14:31:52.786Z,100003.50
2022-12-06T14:34:27.862Z,100015.56
2022-12-06T14:36:59.337Z,100014.75
2022-12-06T14:39:29.535Z,99969.53
2022-12-06T14:42:16.825Z,100018.28
2022-12-06T14:44:48.834Z,100007.25
2022-12-06T14:47:18.260Z,100012.38
2022-12-06T14:50:08.133Z,100003.81
2022-12-06T14:52:37.361Z,100001.00
2022-12-06T14:55:17.788Z,100008.50
2022-12-06T14:57:47.580Z,99999.28
2022-12-06T15:00:25.764Z,100008.81
2022-12-06T15:03:28.864Z,100002.47
2022-12-06T15:06:18.255Z,100003.81
2022-12-06T15:08:54.888Z,100005.44
2022-12-06T15:11:44.409Z,99998.28
2022-12-06T15:14:17.155Z,100012.84
2022-12-06T15:16:46.891Z,100003.81
2022-12-06T15:19:17.238Z,100004.66
2022-12-06T15:21:45.051Z,100009.53
2022-12-06T15:24:18.915Z,100012.97
2022-12-06T15:26:46.612Z,100005.09
2022-12-06T15:29:14.289Z,100003.03
2022-12-06T15:31:44.883Z,100006.00
2022-12-06T15:34:25.340Z,100009.88
2022-12-06T15:37:15.122Z,100003.63
2022-12-06T15:39:43.766Z,100003.88
2022-12-06T15:42:14.490Z,100003.50
2022-12-06T15:44:47.348Z,100007.25
2022-12-06T15:47:17.227Z,100011.59
2022-12-06T15:49:45.420Z,100012.69
2022-12-06T15:52:17.561Z,100012.03
2022-12-06T15:54:46.796Z,100011.34
2022-12-06T15:57:14.786Z,100004.88
2022-12-06T15:59:42.753Z,100006.34
2022-12-06T16:02:15.335Z,99998.16
2022-12-06T16:04:43.694Z,100002.47
2022-12-06T16:07:13.259Z,100008.06
2022-12-06T16:09:41.030Z,99994.06
2022-12-06T16:12:11.197Z,100007.91
2022-12-06T16:14:38.853Z,100002.59
2022-12-06T16:17:06.420Z,100005.66
2022-12-06T16:19:48.124Z,100014.16
2022-12-06T16:22:15.755Z,100002.31
2022-12-06T16:24:42.391Z,100009.84
2022-12-06T16:27:11.596Z,100006.34
2022-12-06T16:29:39.347Z,100004.81
2022-12-06T16:32:07.497Z,100008.47
2022-12-06T16:34:35.391Z,100005.28
2022-12-06T16:37:04.785Z,100001.44
2022-12-06T16:39:34.854Z,100007.00
2022-12-06T16:42:04.422Z,100001.53
2022-12-06T16:44:50.937Z,100006.34
2022-12-06T16:49:48.824Z,100002.47
2022-12-06T16:52:17.182Z,100002.47
2022-12-06T16:54:45.283Z,100004.06
2022-12-06T16:57:13.692Z,99997.34
2022-12-06T16:59:43.423Z,100004.63
2022-12-06T17:02:26.331Z,100006.31
2022-12-06T17:04:54.285Z,99985.63
2022-12-06T17:07:22.018Z,99997.81
2022-12-06T17:09:49.933Z,99960.72
2022-12-06T17:12:17.575Z,99998.00
2022-12-06T17:14:47.108Z,99992.31
2022-12-06T17:17:16.165Z,99950.03
2022-12-06T17:19:44.268Z,99994.16
2022-12-06T17:22:13.453Z,99996.19
2022-12-06T17:24:41.275Z,99998.25
2022-12-06T17:27:09.974Z,99993.72
2022-12-06T17:29:38.011Z,99996.00
2022-12-06T17:32:07.628Z,100000.19
2022-12-06T17:34:35.515Z,99995.06
2022-12-06T17:37:03.824Z,100000.41
2022-12-06T17:39:31.615Z,100004.06
2022-12-06T17:42:17.308Z,99999.53
2022-12-06T17:44:44.931Z,99998.72
2022-12-06T17:47:13.946Z,100002.00
2022-12-06T17:49:41.578Z,100010.06
2022-12-06T17:52:09.256Z,99994.75
2022-12-06T17:54:36.985Z,100003.84
2022-12-06T17:57:04.774Z,100001.66
2022-12-06T17:59:34.110Z,99996.00
2022-12-06T18:02:18.431Z,99992.56
2022-12-06T18:04:48.518Z,100000.72
2022-12-06T18:07:17.380Z,100005.91
2022-12-06T18:09:45.209Z,99893.38
2022-12-06T18:12:14.794Z,100004.59
2022-12-06T18:14:42.511Z,100006.41
2022-12-06T18:17:10.636Z,100008.44
2022-12-06T18:19:40.250Z,100015.94
2022-12-06T18:22:09.312Z,100010.81
2022-12-06T18:24:37.147Z,100013.06
2022-12-06T18:27:05.668Z,100019.44
2022-12-06T18:29:33.903Z,100009.75
2022-12-06T18:32:01.835Z,100020.22
2022-12-06T18:34:29.593Z,100020.91
2022-12-06T18:36:57.206Z,100010.25
2022-12-06T18:39:26.364Z,100022.50
2022-12-06T18:41:54.843Z,100009.09
2022-12-06T18:44:22.965Z,100014.53
2022-12-06T18:46:50.699Z,100012.28
2022-12-06T18:49:18.364Z,100018.31
2022-12-06T18:51:46.015Z,100013.66
2022-12-06T18:54:14.607Z,100022.94
2022-12-06T18:56:43.932Z,100022.94
2022-12-06T18:59:12.898Z,100025.94
2022-12-06T19:01:41.670Z,100027.19
2022-12-06T19:04:14.134Z,100020.13
2022-12-06T19:06:41.800Z,100027.53
2022-12-06T19:09:11.660Z,100015.81
2022-12-06T19:11:40.808Z,100024.25
2022-12-06T19:14:10.072Z,100024.38
2022-12-06T19:16:39.823Z,100016.97
2022-12-06T19:19:15.932Z,100022.06
2022-12-06T19:21:45.004Z,100014.34
2022-12-06T19:24:13.815Z,100019.94
2022-12-06T19:26:41.863Z,100029.59
2022-12-06T19:29:10.842Z,100026.50
2022-12-06T19:31:38.494Z,100026.88
2022-12-06T19:34:06.244Z,99943.41
2022-12-06T19:36:34.374Z,100011.72
2022-12-06T19:39:05.894Z,100013.47
2022-12-06T19:41:55.059Z,100016.66
2022-12-06T19:44:23.077Z,100017.09
2022-12-06T19:46:51.348Z,100013.34
2022-12-06T19:49:22.441Z,100008.69
2022-12-06T19:51:51.049Z,100015.84
2022-12-06T19:54:20.692Z,100015.41
2022-12-06T19:56:49.389Z,100011.31
2022-12-06T19:59:17.049Z,100012.09
2022-12-06T20:01:47.783Z,100021.28
2022-12-06T20:04:18.174Z,100023.19
2022-12-06T20:06:46.364Z,99988.72
2022-12-06T20:09:14.736Z,100020.91
2022-12-06T20:12:03.494Z,99977.47
2022-12-06T20:14:35.980Z,100029.75
2022-12-06T20:17:07.406Z,100026.56
2022-12-06T20:19:35.506Z,100018.16
2022-12-06T20:22:03.145Z,100034.28
2022-12-06T20:24:31.000Z,100032.38
2022-12-06T20:26:58.641Z,100028.13
2022-12-06T20:29:27.007Z,100030.06
2022-12-06T20:31:57.928Z,100029.72
2022-12-06T20:34:28.906Z,100027.31
2022-12-06T20:36:57.499Z,100023.25
2022-12-06T20:39:28.503Z,100021.00
2022-12-06T20:41:56.166Z,100026.22
2022-12-06T20:44:24.042Z,100025.31
2022-12-06T20:46:53.432Z,100026.56
2022-12-06T20:49:21.070Z,100028.63
2022-12-06T20:51:53.188Z,100025.56
2022-12-06T20:54:21.707Z,100031.13
2022-12-06T20:56:51.489Z,100035.00
2022-12-06T20:59:19.667Z,100024.88
2022-12-06T21:01:47.422Z,100031.25
2022-12-06T21:04:35.427Z,100022.03
2022-12-06T21:07:25.556Z,100026.28
2022-12-06T21:10:13.476Z,100027.28
2022-12-06T21:13:05.856Z,100029.78
2022-12-06T21:16:02.422Z,99990.22
2022-12-06T21:18:55.894Z,100032.72
2022-12-06T21:21:46.156Z,100019.91
2022-12-06T21:24:35.525Z,100019.19
2022-12-06T21:27:23.464Z,100023.03
2022-12-06T21:30:12.240Z,100025.22
2022-12-06T21:33:00.201Z,100018.66
2022-12-06T21:35:48.531Z,100020.31
2022-12-06T21:38:36.434Z,100026.66
2022-12-06T21:41:25.757Z,100020.28
2022-12-06T21:44:13.683Z,100019.03
2022-12-06T21:47:01.605Z,100024.69
2022-12-06T21:49:49.514Z,100031.78
2022-12-06T21:52:37.409Z,100032.97
2022-12-06T21:55:25.486Z,100029.16
2022-12-06T21:58:14.700Z,100030.34
2022-12-06T22:01:07.389Z,100031.06
2022-12-06T22:03:58.501Z,100029.56
2022-12-06T22:06:46.410Z,100026.06
2022-12-06T22:09:34.429Z,100031.84
2022-12-06T22:12:22.506Z,100025.50
2022-12-06T22:15:12.626Z,100025.13
2022-12-06T22:18:00.515Z,100019.53
2022-12-06T22:20:57.629Z,100029.38
2022-12-06T22:23:46.215Z,100028.22
2022-12-06T22:26:34.142Z,100026.38
2022-12-06T22:29:22.034Z,100025.91
2022-12-06T22:32:11.301Z,100024.47
2022-12-06T22:34:59.243Z,100025.56
2022-12-06T22:37:47.155Z,100031.94
2022-12-06T22:40:35.354Z,100020.13
2022-12-06T22:43:24.486Z,100021.00
2022-12-06T22:46:15.060Z,100027.38
2022-12-06T22:49:05.969Z,100029.63
2022-12-06T22:51:53.863Z,100021.47
2022-12-06T22:54:41.813Z,100024.78
2022-12-06T22:57:29.721Z,100031.50
2022-12-06T23:00:18.067Z,100026.81
2022-12-06T23:03:06.013Z,100021.84
2022-12-06T23:05:59.231Z,100018.97
2022-12-06T23:08:47.478Z,100020.72
2022-12-06T23:11:37.260Z,100020.25
2022-12-06T23:14:25.153Z,100018.16
2022-12-06T23:17:13.087Z,100019.31
2022-12-06T23:20:01.356Z,100008.13
2022-12-06T23:22:50.856Z,100012.84
2022-12-06T23:25:38.834Z,100008.47
2022-12-06T23:28:26.772Z,100013.00
2022-12-06T23:31:16.367Z,100014.88
2022-12-06T23:34:07.196Z,100018.69
2022-12-06T23:36:55.187Z,100019.50
2022-12-06T23:39:44.983Z,100021.09
2022-12-06T23:42:32.885Z,100014.66
2022-12-06T23:45:20.889Z,100018.16
2022-12-06T23:48:08.820Z,100023.63
2022-12-06T23:51:01.284Z,100018.16
2022-12-06T23:53:52.083Z,100012.56
2022-12-06T23:56:43.073Z,100004.56
2022-12-06T23:59:30.944Z,100024.47
